sensor_id;sensor_type;location;lat;lon;timestamp;temperature;humidity
20141;DHT22;10231;47.702;9.826;2023-04-08T00:00:01;6.80;99.90
20141;DHT22;10231;47.702;9.826;2023-04-08T00:02:26;6.80;99.90
20141;DHT22;10231;47.702;9.826;2023-04-08T00:04:52;6.70;99.90
20141;DHT22;10231;47.702;9.826;2023-04-08T00:07:17;6.70;99.90
20141;DHT22;10231;47.702;9.826;2023-04-08T00:09:43;6.70;99.90
20141;DHT22;10231;47.702;9.826;2023-04-08T00:12:08;6.70;99.90
20141;DHT22;10231;47.702;9.826;2023-04-08T00:14:34;6.60;99.90
20141;DHT22;10231;47.702;9.826;2023-04-08T00:17:00;6.70;99.90
20141;DHT22;10231;47.702;9.826;2023-04-08T00:19:25;6.70;99.90
20141;DHT22;10231;47.702;9.826;2023-04-08T00:21:51;6.70;99.90
20141;DHT22;10231;47.702;9.826;2023-04-08T00:24:17;6.70;99.90
20141;DHT22;10231;47.702;9.826;2023-04-08T00:26:43;6.70;99.90
20141;DHT22;10231;47.702;9.826;2023-04-08T00:29:09;6.70;99.90
20141;DHT22;10231;47.702;9.826;2023-04-08T00:31:35;6.70;99.90
20141;DHT22;10231;47.702;9.826;2023-04-08T00:34:00;6.70;99.90
20141;DHT22;10231;47.702;9.826;2023-04-08T00:36:26;6.70;99.90
20141;DHT22;10231;47.702;9.826;2023-04-08T00:38:52;6.70;99.90
20141;DHT22;10231;47.702;9.826;2023-04-08T00:41:17;6.60;99.90
20141;DHT22;10231;47.702;9.826;2023-04-08T00:43:43;6.60;99.90
20141;DHT22;10231;47.702;9.826;2023-04-08T00:46:08;6.70;99.90
20141;DHT22;10231;47.702;9.826;2023-04-08T00:48:34;6.60;99.90
20141;DHT22;10231;47.702;9.826;2023-04-08T00:50:59;6.60;99.90
20141;DHT22;10231;47.702;9.826;2023-04-08T00:53:26;6.60;99.90
20141;DHT22;10231;47.702;9.826;2023-04-08T00:55:51;6.60;99.90
20141;DHT22;10231;47.702;9.826;2023-04-08T00:58:17;6.60;99.90
20141;DHT22;10231;47.702;9.826;2023-04-08T01:00:49;6.60;99.90
20141;DHT22;10231;47.702;9.826;2023-04-08T01:08:30;6.70;99.90
20141;DHT22;10231;47.702;9.826;2023-04-08T01:11:00;6.60;99.90
20141;DHT22;10231;47.702;9.826;2023-04-08T01:13:29;6.60;99.90
20141;DHT22;10231;47.702;9.826;2023-04-08T01:15:55;6.60;99.90
20141;DHT22;10231;47.702;9.826;2023-04-08T01:18:21;6.70;99.90
20141;DHT22;10231;47.702;9.826;2023-04-08T01:20:49;6.70;99.90
20141;DHT22;10231;47.702;9.826;2023-04-08T01:25:54;6.50;99.90
20141;DHT22;10231;47.702;9.826;2023-04-08T01:28:22;6.60;99.90
20141;DHT22;10231;47.702;9.826;2023-04-08T01:30:49;6.50;99.90
20141;DHT22;10231;47.702;9.826;2023-04-08T01:33:16;6.50;99.90
20141;DHT22;10231;47.702;9.826;2023-04-08T01:35:43;6.50;99.90
20141;DHT22;10231;47.702;9.826;2023-04-08T01:38:13;6.60;99.90
20141;DHT22;10231;47.702;9.826;2023-04-08T01:40:40;6.50;99.90
20141;DHT22;10231;47.702;9.826;2023-04-08T01:43:09;6.60;99.90
20141;DHT22;10231;47.702;9.826;2023-04-08T01:45:37;6.50;99.90
20141;DHT22;10231;47.702;9.826;2023-04-08T01:48:03;6.40;99.90
20141;DHT22;10231;47.702;9.826;2023-04-08T01:50:30;6.50;99.90
20141;DHT22;10231;47.702;9.826;2023-04-08T01:52:58;6.50;99.90
20141;DHT22;10231;47.702;9.826;2023-04-08T01:55:25;6.50;99.90
20141;DHT22;10231;47.702;9.826;2023-04-08T01:57:52;6.50;99.90
20141;DHT22;10231;47.702;9.826;2023-04-08T02:00:23;6.50;99.90
20141;DHT22;10231;47.702;9.826;2023-04-08T02:02:50;6.50;99.90
20141;DHT22;10231;47.702;9.826;2023-04-08T02:05:17;6.50;99.90
20141;DHT22;10231;47.702;9.826;2023-04-08T02:07:42;6.40;99.90
20141;DHT22;10231;47.702;9.826;2023-04-08T02:10:10;6.40;99.90
20141;DHT22;10231;47.702;9.826;2023-04-08T02:12:35;6.30;99.90
20141;DHT22;10231;47.702;9.826;2023-04-08T02:15:01;6.30;99.90
20141;DHT22;10231;47.702;9.826;2023-04-08T02:17:44;6.40;99.90
20141;DHT22;10231;47.702;9.826;2023-04-08T02:20:16;6.40;99.90
20141;DHT22;10231;47.702;9.826;2023-04-08T02:22:48;6.40;99.90
20141;DHT22;10231;47.702;9.826;2023-04-08T02:25:16;6.40;99.90
20141;DHT22;10231;47.702;9.826;2023-04-08T02:27:43;6.30;99.90
20141;DHT22;10231;47.702;9.826;2023-04-08T02:30:11;6.20;99.90
20141;DHT22;10231;47.702;9.826;2023-04-08T02:32:37;6.20;99.90
20141;DHT22;10231;47.702;9.826;2023-04-08T02:35:04;6.20;99.90
20141;DHT22;10231;47.702;9.826;2023-04-08T02:37:31;6.30;99.90
20141;DHT22;10231;47.702;9.826;2023-04-08T02:39:56;6.20;99.90
20141;DHT22;10231;47.702;9.826;2023-04-08T02:42:22;6.30;99.90
20141;DHT22;10231;47.702;9.826;2023-04-08T02:44:47;6.30;99.90
20141;DHT22;10231;47.702;9.826;2023-04-08T02:47:13;6.30;99.90
20141;DHT22;10231;47.702;9.826;2023-04-08T02:49:38;6.30;99.90
20141;DHT22;10231;47.702;9.826;2023-04-08T02:52:04;6.30;99.90
20141;DHT22;10231;47.702;9.826;2023-04-08T02:54:30;6.30;99.90
20141;DHT22;10231;47.702;9.826;2023-04-08T02:56:55;6.30;99.90
20141;DHT22;10231;47.702;9.826;2023-04-08T02:59:21;6.30;99.90
20141;DHT22;10231;47.702;9.826;2023-04-08T03:01:46;6.40;99.90
20141;DHT22;10231;47.702;9.826;2023-04-08T03:04:12;6.30;99.90
20141;DHT22;10231;47.702;9.826;2023-04-08T03:06:37;6.40;99.90
20141;DHT22;10231;47.702;9.826;2023-04-08T03:09:03;6.40;99.90
20141;DHT22;10231;47.702;9.826;2023-04-08T03:11:30;6.30;99.90
20141;DHT22;10231;47.702;9.826;2023-04-08T03:13:56;6.20;99.90
20141;DHT22;10231;47.702;9.826;2023-04-08T03:16:21;6.30;99.90
20141;DHT22;10231;47.702;9.826;2023-04-08T03:18:48;6.30;99.90
20141;DHT22;10231;47.702;9.826;2023-04-08T03:21:14;6.20;99.90
20141;DHT22;10231;47.702;9.826;2023-04-08T03:23:40;6.30;99.90
20141;DHT22;10231;47.702;9.826;2023-04-08T03:26:05;6.40;99.90
20141;DHT22;10231;47.702;9.826;2023-04-08T03:28:31;6.40;99.90
20141;DHT22;10231;47.702;9.826;2023-04-08T03:30:56;6.30;99.90
20141;DHT22;10231;47.702;9.826;2023-04-08T03:33:22;6.30;99.90
20141;DHT22;10231;47.702;9.826;2023-04-08T03:35:47;6.30;99.90
20141;DHT22;10231;47.702;9.826;2023-04-08T03:38:13;6.30;99.90
20141;DHT22;10231;47.702;9.826;2023-04-08T03:40:38;6.30;99.90
20141;DHT22;10231;47.702;9.826;2023-04-08T03:43:04;6.30;99.90
20141;DHT22;10231;47.702;9.826;2023-04-08T03:45:31;6.20;99.90
20141;DHT22;10231;47.702;9.826;2023-04-08T03:47:56;6.10;99.90
20141;DHT22;10231;47.702;9.826;2023-04-08T03:50:22;6.10;99.90
20141;DHT22;10231;47.702;9.826;2023-04-08T03:52:47;6.00;99.90
20141;DHT22;10231;47.702;9.826;2023-04-08T03:55:13;6.00;99.90
20141;DHT22;10231;47.702;9.826;2023-04-08T03:57:38;6.00;99.90
20141;DHT22;10231;47.702;9.826;2023-04-08T04:00:05;5.90;99.90
20141;DHT22;10231;47.702;9.826;2023-04-08T04:02:30;5.90;99.90
20141;DHT22;10231;47.702;9.826;2023-04-08T04:04:56;5.90;99.90
20141;DHT22;10231;47.702;9.826;2023-04-08T04:07:21;5.90;99.90
20141;DHT22;10231;47.702;9.826;2023-04-08T04:09:47;5.90;99.90
20141;DHT22;10231;47.702;9.826;2023-04-08T04:12:12;5.90;99.90
20141;DHT22;10231;47.702;9.826;2023-04-08T04:14:38;5.90;99.90
20141;DHT22;10231;47.702;9.826;2023-04-08T04:17:04;5.90;99.90
20141;DHT22;10231;47.702;9.826;2023-04-08T04:19:30;5.90;99.90
20141;DHT22;10231;47.702;9.826;2023-04-08T04:21:56;5.90;99.90
20141;DHT22;10231;47.702;9.826;2023-04-08T04:24:21;5.80;99.90
20141;DHT22;10231;47.702;9.826;2023-04-08T04:26:47;5.80;99.90
20141;DHT22;10231;47.702;9.826;2023-04-08T04:29:12;6.00;99.90
20141;DHT22;10231;47.702;9.826;2023-04-08T04:31:38;6.00;99.90
20141;DHT22;10231;47.702;9.826;2023-04-08T04:34:03;6.00;99.90
20141;DHT22;10231;47.702;9.826;2023-04-08T04:36:29;6.10;99.90
20141;DHT22;10231;47.702;9.826;2023-04-08T04:38:56;6.10;99.90
20141;DHT22;10231;47.702;9.826;2023-04-08T04:41:22;6.00;99.90
20141;DHT22;10231;47.702;9.826;2023-04-08T04:43:47;6.00;99.90
20141;DHT22;10231;47.702;9.826;2023-04-08T04:46:13;6.00;99.90
20141;DHT22;10231;47.702;9.826;2023-04-08T04:48:39;6.00;99.90
20141;DHT22;10231;47.702;9.826;2023-04-08T04:51:04;6.00;99.90
20141;DHT22;10231;47.702;9.826;2023-04-08T04:53:31;6.00;99.90
20141;DHT22;10231;47.702;9.826;2023-04-08T04:55:57;6.00;99.90
20141;DHT22;10231;47.702;9.826;2023-04-08T04:58:25;6.00;99.90
20141;DHT22;10231;47.702;9.826;2023-04-08T05:00:50;6.10;99.90
20141;DHT22;10231;47.702;9.826;2023-04-08T05:03:16;6.00;99.90
20141;DHT22;10231;47.702;9.826;2023-04-08T05:05:42;6.10;99.90
20141;DHT22;10231;47.702;9.826;2023-04-08T05:08:07;6.00;99.90
20141;DHT22;10231;47.702;9.826;2023-04-08T05:10:33;6.00;99.90
20141;DHT22;10231;47.702;9.826;2023-04-08T05:12:58;6.00;99.90
20141;DHT22;10231;47.702;9.826;2023-04-08T05:15:24;6.00;99.90
20141;DHT22;10231;47.702;9.826;2023-04-08T05:17:49;6.00;99.90
20141;DHT22;10231;47.702;9.826;2023-04-08T05:20:15;6.00;99.90
20141;DHT22;10231;47.702;9.826;2023-04-08T05:22:40;5.90;99.90
20141;DHT22;10231;47.702;9.826;2023-04-08T05:25:09;5.90;99.90
20141;DHT22;10231;47.702;9.826;2023-04-08T05:27:34;5.80;99.90
20141;DHT22;10231;47.702;9.826;2023-04-08T05:30:00;5.80;99.90
20141;DHT22;10231;47.702;9.826;2023-04-08T05:32:26;5.80;99.90
20141;DHT22;10231;47.702;9.826;2023-04-08T05:34:51;5.80;99.90
20141;DHT22;10231;47.702;9.826;2023-04-08T05:37:17;5.80;99.90
20141;DHT22;10231;47.702;9.826;2023-04-08T05:39:42;5.70;99.90
20141;DHT22;10231;47.702;9.826;2023-04-08T05:42:08;5.80;99.90
20141;DHT22;10231;47.702;9.826;2023-04-08T05:44:34;5.70;99.90
20141;DHT22;10231;47.702;9.826;2023-04-08T05:46:59;5.70;99.90
20141;DHT22;10231;47.702;9.826;2023-04-08T05:49:25;5.70;99.90
20141;DHT22;10231;47.702;9.826;2023-04-08T05:51:50;5.70;99.90
20141;DHT22;10231;47.702;9.826;2023-04-08T05:54:16;5.70;99.90
20141;DHT22;10231;47.702;9.826;2023-04-08T05:56:41;5.70;99.90
20141;DHT22;10231;47.702;9.826;2023-04-08T05:59:10;5.70;99.90
20141;DHT22;10231;47.702;9.826;2023-04-08T06:01:36;5.70;99.90
20141;DHT22;10231;47.702;9.826;2023-04-08T06:04:01;5.60;99.90
20141;DHT22;10231;47.702;9.826;2023-04-08T06:06:28;5.60;99.90
20141;DHT22;10231;47.702;9.826;2023-04-08T06:08:53;5.60;99.90
20141;DHT22;10231;47.702;9.826;2023-04-08T06:11:19;5.70;99.90
20141;DHT22;10231;47.702;9.826;2023-04-08T06:13:44;5.70;99.90
20141;DHT22;10231;47.702;9.826;2023-04-08T06:16:11;5.60;99.90
20141;DHT22;10231;47.702;9.826;2023-04-08T06:18:37;5.70;99.90
20141;DHT22;10231;47.702;9.826;2023-04-08T06:21:03;5.60;99.90
20141;DHT22;10231;47.702;9.826;2023-04-08T06:23:28;5.50;99.90
20141;DHT22;10231;47.702;9.826;2023-04-08T06:25:54;5.50;99.90
20141;DHT22;10231;47.702;9.826;2023-04-08T06:28:19;5.50;99.90
20141;DHT22;10231;47.702;9.826;2023-04-08T06:30:45;5.50;99.90
20141;DHT22;10231;47.702;9.826;2023-04-08T06:33:10;5.50;99.90
20141;DHT22;10231;47.702;9.826;2023-04-08T06:35:36;5.50;99.90
20141;DHT22;10231;47.702;9.826;2023-04-08T06:38:02;5.50;99.90
20141;DHT22;10231;47.702;9.826;2023-04-08T06:40:28;5.50;99.90
20141;DHT22;10231;47.702;9.826;2023-04-08T06:42:53;5.50;99.90
20141;DHT22;10231;47.702;9.826;2023-04-08T06:45:19;5.60;99.90
20141;DHT22;10231;47.702;9.826;2023-04-08T06:47:45;5.60;99.90
20141;DHT22;10231;47.702;9.826;2023-04-08T06:50:11;5.60;99.90
20141;DHT22;10231;47.702;9.826;2023-04-08T06:52:36;5.60;99.90
20141;DHT22;10231;47.702;9.826;2023-04-08T06:55:02;5.60;99.90
20141;DHT22;10231;47.702;9.826;2023-04-08T06:57:28;5.60;99.90
20141;DHT22;10231;47.702;9.826;2023-04-08T06:59:53;5.60;99.90
20141;DHT22;10231;47.702;9.826;2023-04-08T07:02:20;5.70;99.90
20141;DHT22;10231;47.702;9.826;2023-04-08T07:04:46;5.70;99.90
20141;DHT22;10231;47.702;9.826;2023-04-08T07:07:12;5.60;99.90
20141;DHT22;10231;47.702;9.826;2023-04-08T07:09:38;5.50;99.90
20141;DHT22;10231;47.702;9.826;2023-04-08T07:12:05;5.50;99.90
20141;DHT22;10231;47.702;9.826;2023-04-08T07:14:31;5.60;99.90
20141;DHT22;10231;47.702;9.826;2023-04-08T07:16:57;5.60;99.90
20141;DHT22;10231;47.702;9.826;2023-04-08T07:19:22;5.50;99.90
20141;DHT22;10231;47.702;9.826;2023-04-08T07:21:48;5.40;99.90
20141;DHT22;10231;47.702;9.826;2023-04-08T07:24:14;5.40;99.90
20141;DHT22;10231;47.702;9.826;2023-04-08T07:26:40;5.40;99.90
20141;DHT22;10231;47.702;9.826;2023-04-08T07:29:06;5.50;99.90
20141;DHT22;10231;47.702;9.826;2023-04-08T07:31:32;5.60;99.90
20141;DHT22;10231;47.702;9.826;2023-04-08T07:33:57;5.60;99.90
20141;DHT22;10231;47.702;9.826;2023-04-08T07:36:23;5.70;99.90
20141;DHT22;10231;47.702;9.826;2023-04-08T07:38:48;5.70;99.90
20141;DHT22;10231;47.702;9.826;2023-04-08T07:41:14;5.70;99.90
20141;DHT22;10231;47.702;9.826;2023-04-08T07:43:40;5.80;99.90
20141;DHT22;10231;47.702;9.826;2023-04-08T07:46:06;5.80;99.90
20141;DHT22;10231;47.702;9.826;2023-04-08T07:48:32;5.80;99.90
20141;DHT22;10231;47.702;9.826;2023-04-08T07:51:10;5.80;99.90
20141;DHT22;10231;47.702;9.826;2023-04-08T07:53:37;5.80;99.90
20141;DHT22;10231;47.702;9.826;2023-04-08T07:56:08;5.80;99.90
20141;DHT22;10231;47.702;9.826;2023-04-08T07:58:34;5.90;99.90
20141;DHT22;10231;47.702;9.826;2023-04-08T08:01:00;6.00;99.90
20141;DHT22;10231;47.702;9.826;2023-04-08T08:03:25;6.10;99.90
20141;DHT22;10231;47.702;9.826;2023-04-08T08:05:51;6.10;99.90
20141;DHT22;10231;47.702;9.826;2023-04-08T08:08:17;6.10;99.90
20141;DHT22;10231;47.702;9.826;2023-04-08T08:10:42;6.10;99.90
20141;DHT22;10231;47.702;9.826;2023-04-08T08:13:08;6.10;99.90
20141;DHT22;10231;47.702;9.826;2023-04-08T08:15:33;6.20;99.90
20141;DHT22;10231;47.702;9.826;2023-04-08T08:17:59;6.30;99.90
20141;DHT22;10231;47.702;9.826;2023-04-08T08:20:25;6.30;99.90
20141;DHT22;10231;47.702;9.826;2023-04-08T08:22:51;6.30;99.90
20141;DHT22;10231;47.702;9.826;2023-04-08T08:25:17;6.40;99.90
20141;DHT22;10231;47.702;9.826;2023-04-08T08:27:43;6.40;99.90
20141;DHT22;10231;47.702;9.826;2023-04-08T08:30:09;6.40;99.90
20141;DHT22;10231;47.702;9.826;2023-04-08T08:32:35;6.40;99.90
20141;DHT22;10231;47.702;9.826;2023-04-08T08:35:01;6.40;99.90
20141;DHT22;10231;47.702;9.826;2023-04-08T08:37:26;6.40;99.90
20141;DHT22;10231;47.702;9.826;2023-04-08T08:39:52;6.40;99.90
20141;DHT22;10231;47.702;9.826;2023-04-08T08:42:26;6.40;99.90
20141;DHT22;10231;47.702;9.826;2023-04-08T08:44:53;6.40;99.90
20141;DHT22;10231;47.702;9.826;2023-04-08T08:47:19;6.50;99.90
20141;DHT22;10231;47.702;9.826;2023-04-08T08:49:46;6.50;99.90
20141;DHT22;10231;47.702;9.826;2023-04-08T08:52:15;6.50;99.90
20141;DHT22;10231;47.702;9.826;2023-04-08T08:54:43;6.50;99.90
20141;DHT22;10231;47.702;9.826;2023-04-08T08:57:19;6.50;99.90
20141;DHT22;10231;47.702;9.826;2023-04-08T08:59:48;6.50;99.90
20141;DHT22;10231;47.702;9.826;2023-04-08T09:02:27;6.50;99.90
20141;DHT22;10231;47.702;9.826;2023-04-08T09:05:01;6.50;99.90
20141;DHT22;10231;47.702;9.826;2023-04-08T09:07:28;6.40;99.90
20141;DHT22;10231;47.702;9.826;2023-04-08T09:09:56;6.40;99.90
20141;DHT22;10231;47.702;9.826;2023-04-08T09:12:22;6.40;99.90
20141;DHT22;10231;47.702;9.826;2023-04-08T09:14:48;6.50;99.90
20141;DHT22;10231;47.702;9.826;2023-04-08T09:17:14;6.40;99.90
20141;DHT22;10231;47.702;9.826;2023-04-08T09:20:07;6.40;99.90
20141;DHT22;10231;47.702;9.826;2023-04-08T09:23:01;6.40;99.90
20141;DHT22;10231;47.702;9.826;2023-04-08T09:25:31;6.50;99.90
20141;DHT22;10231;47.702;9.826;2023-04-08T09:27:58;6.50;99.90
20141;DHT22;10231;47.702;9.826;2023-04-08T09:30:24;6.60;99.90
20141;DHT22;10231;47.702;9.826;2023-04-08T09:32:53;6.60;99.90
20141;DHT22;10231;47.702;9.826;2023-04-08T09:35:19;6.60;99.90
20141;DHT22;10231;47.702;9.826;2023-04-08T09:37:45;6.70;99.90
20141;DHT22;10231;47.702;9.826;2023-04-08T09:40:11;6.70;99.90
20141;DHT22;10231;47.702;9.826;2023-04-08T09:42:40;6.70;99.90
20141;DHT22;10231;47.702;9.826;2023-04-08T09:45:06;6.90;99.90
20141;DHT22;10231;47.702;9.826;2023-04-08T09:47:41;6.80;99.90
20141;DHT22;10231;47.702;9.826;2023-04-08T09:50:08;6.90;99.90
20141;DHT22;10231;47.702;9.826;2023-04-08T09:53:06;6.90;99.90
20141;DHT22;10231;47.702;9.826;2023-04-08T09:55:35;7.00;99.90
20141;DHT22;10231;47.702;9.826;2023-04-08T09:58:06;7.00;99.90
20141;DHT22;10231;47.702;9.826;2023-04-08T10:00:45;7.00;99.90
20141;DHT22;10231;47.702;9.826;2023-04-08T10:03:28;7.00;99.90
20141;DHT22;10231;47.702;9.826;2023-04-08T10:05:54;6.90;99.90
20141;DHT22;10231;47.702;9.826;2023-04-08T10:08:23;7.00;99.90
20141;DHT22;10231;47.702;9.826;2023-04-08T10:10:50;7.00;99.90
20141;DHT22;10231;47.702;9.826;2023-04-08T10:13:16;7.00;99.90
20141;DHT22;10231;47.702;9.826;2023-04-08T10:15:41;6.90;99.90
20141;DHT22;10231;47.702;9.826;2023-04-08T10:23:07;6.90;99.90
20141;DHT22;10231;47.702;9.826;2023-04-08T10:25:48;7.00;99.90
20141;DHT22;10231;47.702;9.826;2023-04-08T10:30:43;7.00;99.90
20141;DHT22;10231;47.702;9.826;2023-04-08T10:35:53;6.80;99.90
20141;DHT22;10231;47.702;9.826;2023-04-08T10:38:20;6.80;99.90
20141;DHT22;10231;47.702;9.826;2023-04-08T10:40:48;6.90;99.90
20141;DHT22;10231;47.702;9.826;2023-04-08T10:43:14;6.90;99.90
20141;DHT22;10231;47.702;9.826;2023-04-08T10:45:41;6.90;99.90
20141;DHT22;10231;47.702;9.826;2023-04-08T10:48:26;6.90;99.90
20141;DHT22;10231;47.702;9.826;2023-04-08T10:50:57;6.90;99.90
20141;DHT22;10231;47.702;9.826;2023-04-08T10:53:30;6.90;99.90
20141;DHT22;10231;47.702;9.826;2023-04-08T10:56:09;6.90;99.90
20141;DHT22;10231;47.702;9.826;2023-04-08T11:01:14;7.00;99.90
20141;DHT22;10231;47.702;9.826;2023-04-08T11:03:41;7.00;99.90
20141;DHT22;10231;47.702;9.826;2023-04-08T11:06:07;7.00;99.90
20141;DHT22;10231;47.702;9.826;2023-04-08T11:08:34;7.00;99.90
20141;DHT22;10231;47.702;9.826;2023-04-08T11:11:01;7.00;99.90
20141;DHT22;10231;47.702;9.826;2023-04-08T11:13:27;7.00;99.90
20141;DHT22;10231;47.702;9.826;2023-04-08T11:15:54;7.00;99.90
20141;DHT22;10231;47.702;9.826;2023-04-08T11:18:21;6.90;99.90
20141;DHT22;10231;47.702;9.826;2023-04-08T11:20:50;6.90;99.90
20141;DHT22;10231;47.702;9.826;2023-04-08T11:23:16;7.00;99.90
20141;DHT22;10231;47.702;9.826;2023-04-08T11:25:43;7.00;99.90
20141;DHT22;10231;47.702;9.826;2023-04-08T11:28:12;7.10;99.90
20141;DHT22;10231;47.702;9.826;2023-04-08T11:30:39;7.10;99.90
20141;DHT22;10231;47.702;9.826;2023-04-08T11:33:06;7.10;99.90
20141;DHT22;10231;47.702;9.826;2023-04-08T11:35:32;7.10;99.90
20141;DHT22;10231;47.702;9.826;2023-04-08T11:37:57;7.10;99.90
20141;DHT22;10231;47.702;9.826;2023-04-08T11:40:23;7.20;99.90
20141;DHT22;10231;47.702;9.826;2023-04-08T11:42:51;7.30;99.90
20141;DHT22;10231;47.702;9.826;2023-04-08T11:45:18;7.40;99.90
20141;DHT22;10231;47.702;9.826;2023-04-08T11:47:44;7.50;99.90
20141;DHT22;10231;47.702;9.826;2023-04-08T11:50:10;7.40;99.90
20141;DHT22;10231;47.702;9.826;2023-04-08T11:52:47;7.40;99.90
20141;DHT22;10231;47.702;9.826;2023-04-08T11:55:24;7.50;99.90
20141;DHT22;10231;47.702;9.826;2023-04-08T11:57:50;7.50;99.90
20141;DHT22;10231;47.702;9.826;2023-04-08T12:00:18;7.50;99.90
20141;DHT22;10231;47.702;9.826;2023-04-08T12:02:44;7.60;99.90
20141;DHT22;10231;47.702;9.826;2023-04-08T12:05:13;7.60;99.90
20141;DHT22;10231;47.702;9.826;2023-04-08T12:07:38;7.70;99.90
20141;DHT22;10231;47.702;9.826;2023-04-08T12:10:04;7.70;99.90
20141;DHT22;10231;47.702;9.826;2023-04-08T12:12:30;7.60;99.90
20141;DHT22;10231;47.702;9.826;2023-04-08T12:14:56;7.60;99.90
20141;DHT22;10231;47.702;9.826;2023-04-08T12:17:21;7.60;99.90
20141;DHT22;10231;47.702;9.826;2023-04-08T12:19:47;7.60;99.90
20141;DHT22;10231;47.702;9.826;2023-04-08T12:22:13;7.60;99.90
20141;DHT22;10231;47.702;9.826;2023-04-08T12:24:38;7.60;99.90
20141;DHT22;10231;47.702;9.826;2023-04-08T12:27:04;7.60;99.90
20141;DHT22;10231;47.702;9.826;2023-04-08T12:29:30;7.70;99.90
20141;DHT22;10231;47.702;9.826;2023-04-08T12:31:55;7.60;99.90
20141;DHT22;10231;47.702;9.826;2023-04-08T12:34:21;7.60;99.90
20141;DHT22;10231;47.702;9.826;2023-04-08T12:36:47;7.50;99.90
20141;DHT22;10231;47.702;9.826;2023-04-08T12:39:13;7.30;99.90
20141;DHT22;10231;47.702;9.826;2023-04-08T12:41:39;7.20;99.90
20141;DHT22;10231;47.702;9.826;2023-04-08T12:44:04;7.10;99.90
20141;DHT22;10231;47.702;9.826;2023-04-08T12:46:30;7.20;99.90
20141;DHT22;10231;47.702;9.826;2023-04-08T12:48:55;7.10;99.90
20141;DHT22;10231;47.702;9.826;2023-04-08T12:51:21;7.20;99.90
20141;DHT22;10231;47.702;9.826;2023-04-08T12:53:46;7.20;99.90
20141;DHT22;10231;47.702;9.826;2023-04-08T12:56:12;7.30;99.90
20141;DHT22;10231;47.702;9.826;2023-04-08T12:58:38;7.30;99.90
20141;DHT22;10231;47.702;9.826;2023-04-08T13:01:04;7.30;99.90
20141;DHT22;10231;47.702;9.826;2023-04-08T13:03:30;7.30;99.90
20141;DHT22;10231;47.702;9.826;2023-04-08T13:05:56;7.30;99.90
20141;DHT22;10231;47.702;9.826;2023-04-08T13:08:23;7.30;99.90
20141;DHT22;10231;47.702;9.826;2023-04-08T13:10:49;7.40;99.90
20141;DHT22;10231;47.702;9.826;2023-04-08T13:13:15;7.50;99.90
20141;DHT22;10231;47.702;9.826;2023-04-08T13:15:40;7.60;99.90
20141;DHT22;10231;47.702;9.826;2023-04-08T13:18:06;7.60;99.90
20141;DHT22;10231;47.702;9.826;2023-04-08T13:20:32;7.70;99.90
20141;DHT22;10231;47.702;9.826;2023-04-08T13:22:57;7.70;99.90
20141;DHT22;10231;47.702;9.826;2023-04-08T13:25:24;7.80;99.90
20141;DHT22;10231;47.702;9.826;2023-04-08T13:27:50;7.80;99.90
20141;DHT22;10231;47.702;9.826;2023-04-08T13:30:16;7.80;99.90
20141;DHT22;10231;47.702;9.826;2023-04-08T13:32:41;7.90;99.90
20141;DHT22;10231;47.702;9.826;2023-04-08T13:35:07;7.80;99.90
20141;DHT22;10231;47.702;9.826;2023-04-08T13:37:33;7.90;99.90
20141;DHT22;10231;47.702;9.826;2023-04-08T13:39:58;7.90;99.90
20141;DHT22;10231;47.702;9.826;2023-04-08T13:42:24;7.90;99.90
20141;DHT22;10231;47.702;9.826;2023-04-08T13:44:49;7.90;99.90
20141;DHT22;10231;47.702;9.826;2023-04-08T13:47:15;7.80;99.90
20141;DHT22;10231;47.702;9.826;2023-04-08T13:49:41;7.70;99.90
20141;DHT22;10231;47.702;9.826;2023-04-08T13:52:07;7.80;99.90
20141;DHT22;10231;47.702;9.826;2023-04-08T13:54:32;7.80;99.90
20141;DHT22;10231;47.702;9.826;2023-04-08T13:56:58;7.70;99.90
20141;DHT22;10231;47.702;9.826;2023-04-08T13:59:23;7.60;99.90
20141;DHT22;10231;47.702;9.826;2023-04-08T14:01:49;7.60;99.90
20141;DHT22;10231;47.702;9.826;2023-04-08T14:04:18;7.50;99.90
20141;DHT22;10231;47.702;9.826;2023-04-08T14:06:45;7.40;99.90
20141;DHT22;10231;47.702;9.826;2023-04-08T14:09:10;7.50;99.90
20141;DHT22;10231;47.702;9.826;2023-04-08T14:11:36;7.40;99.90
20141;DHT22;10231;47.702;9.826;2023-04-08T14:14:02;7.40;99.90
20141;DHT22;10231;47.702;9.826;2023-04-08T14:16:27;7.40;99.90
20141;DHT22;10231;47.702;9.826;2023-04-08T14:18:55;7.40;99.90
20141;DHT22;10231;47.702;9.826;2023-04-08T14:21:21;7.40;99.90
20141;DHT22;10231;47.702;9.826;2023-04-08T14:23:47;7.40;99.90
20141;DHT22;10231;47.702;9.826;2023-04-08T14:26:12;7.50;99.90
20141;DHT22;10231;47.702;9.826;2023-04-08T14:28:38;7.60;99.90
20141;DHT22;10231;47.702;9.826;2023-04-08T14:31:04;7.60;99.90
20141;DHT22;10231;47.702;9.826;2023-04-08T14:33:30;7.60;99.90
20141;DHT22;10231;47.702;9.826;2023-04-08T14:35:56;7.70;99.90
20141;DHT22;10231;47.702;9.826;2023-04-08T14:38:23;7.70;99.90
20141;DHT22;10231;47.702;9.826;2023-04-08T14:40:49;7.80;99.90
20141;DHT22;10231;47.702;9.826;2023-04-08T14:43:15;7.80;99.90
20141;DHT22;10231;47.702;9.826;2023-04-08T14:45:40;7.80;99.90
20141;DHT22;10231;47.702;9.826;2023-04-08T14:48:06;7.80;99.90
20141;DHT22;10231;47.702;9.826;2023-04-08T14:50:32;7.80;99.90
20141;DHT22;10231;47.702;9.826;2023-04-08T14:52:57;7.80;99.90
20141;DHT22;10231;47.702;9.826;2023-04-08T14:55:23;7.90;99.90
20141;DHT22;10231;47.702;9.826;2023-04-08T14:57:49;7.80;99.90
20141;DHT22;10231;47.702;9.826;2023-04-08T15:00:15;7.80;99.90
20141;DHT22;10231;47.702;9.826;2023-04-08T15:02:40;7.90;99.90
20141;DHT22;10231;47.702;9.826;2023-04-08T15:05:06;7.90;99.90
20141;DHT22;10231;47.702;9.826;2023-04-08T15:07:32;7.90;99.90
20141;DHT22;10231;47.702;9.826;2023-04-08T15:09:58;7.90;99.90
20141;DHT22;10231;47.702;9.826;2023-04-08T15:12:24;7.90;99.90
20141;DHT22;10231;47.702;9.826;2023-04-08T15:14:49;7.90;99.90
20141;DHT22;10231;47.702;9.826;2023-04-08T15:17:15;7.80;99.90
20141;DHT22;10231;47.702;9.826;2023-04-08T15:19:41;7.80;99.90
20141;DHT22;10231;47.702;9.826;2023-04-08T15:22:06;7.80;99.90
20141;DHT22;10231;47.702;9.826;2023-04-08T15:24:32;7.80;99.90
20141;DHT22;10231;47.702;9.826;2023-04-08T15:26:57;7.70;99.90
20141;DHT22;10231;47.702;9.826;2023-04-08T15:29:23;7.70;99.90
20141;DHT22;10231;47.702;9.826;2023-04-08T15:31:49;7.70;99.90
20141;DHT22;10231;47.702;9.826;2023-04-08T15:34:15;7.60;99.90
20141;DHT22;10231;47.702;9.826;2023-04-08T15:36:41;7.50;99.90
20141;DHT22;10231;47.702;9.826;2023-04-08T15:39:06;7.50;99.90
20141;DHT22;10231;47.702;9.826;2023-04-08T15:41:32;7.50;99.90
20141;DHT22;10231;47.702;9.826;2023-04-08T15:43:57;7.50;99.90
20141;DHT22;10231;47.702;9.826;2023-04-08T15:46:23;7.50;99.90
20141;DHT22;10231;47.702;9.826;2023-04-08T15:48:49;7.50;99.90
20141;DHT22;10231;47.702;9.826;2023-04-08T15:51:15;7.50;99.90
20141;DHT22;10231;47.702;9.826;2023-04-08T15:53:41;7.40;99.90
20141;DHT22;10231;47.702;9.826;2023-04-08T15:56:14;7.50;99.90
20141;DHT22;10231;47.702;9.826;2023-04-08T15:58:40;7.40;99.90
20141;DHT22;10231;47.702;9.826;2023-04-08T16:01:06;7.50;99.90